Time,TemperatureF,DewpointF,PressureIn,WindDirection,WindDirectionDegrees,WindSpeedMPH,WindSpeedGustMPH,Humidity,HourlyPrecipIn,Conditions,Clouds,dailyrainin,SoftwareType,DateUTC
2013-06-17 00:10:00,57.0,56.4,30.01,SW,225,0.0,-999.0,98,-99.99,,,0.00,Acu-Link.com,2013-06-17 07:10:00,
2013-06-17 00:25:00,56.8,56.2,30.02,ESE,112,2.2,-999.0,98,-99.99,,,0.00,Acu-Link.com,2013-06-17 07:25:00,
2013-06-17 00:40:00,56.5,55.9,30.03,NNE,22,1.1,-999.0,98,-99.99,,,0.00,Acu-Link.com,2013-06-17 07:40:00,
2013-06-17 00:56:00,56.3,55.7,30.03,SSW,202,1.7,-999.0,98,-99.99,,,0.00,Acu-Link.com,2013-06-17 07:56:00,
2013-06-17 01:11:00,56.3,55.7,30.02,SW,225,0.0,-999.0,98,-99.99,,,0.00,Acu-Link.com,2013-06-17 08:11:00,
2013-06-17 01:26:00,55.9,55.3,30.02,North,0,0.0,-999.0,98,-99.99,,,0.00,Acu-Link.com,2013-06-17 08:26:00,
2013-06-17 01:41:00,55.6,55.0,30.02,East,90,0.0,-999.0,98,-99.99,,,0.00,Acu-Link.com,2013-06-17 08:41:00,
2013-06-17 01:56:00,55.0,54.4,30.01,ESE,112,0.0,-999.0,98,-99.99,,,0.00,Acu-Link.com,2013-06-17 08:56:00,
2013-06-17 02:11:00,55.0,54.4,30.01,SSW,202,0.0,-999.0,98,-99.99,,,0.00,Acu-Link.com,2013-06-17 09:11:00,
2013-06-17 02:27:00,55.0,54.4,30.02,SSE,157,0.0,-999.0,98,-99.99,,,0.00,Acu-Link.com,2013-06-17 09:27:00,
2013-06-17 02:42:00,55.0,54.4,30.03,East,90,0.0,-999.0,98,-99.99,,,0.00,Acu-Link.com,2013-06-17 09:42:00,
2013-06-17 02:57:00,54.9,54.3,30.01,SSE,157,0.0,-999.0,98,-99.99,,,0.00,Acu-Link.com,2013-06-17 09:57:00,
2013-06-17 03:12:00,55.2,54.6,30.01,SE,135,0.0,-999.0,98,-99.99,,,0.00,Acu-Link.com,2013-06-17 10:12:00,
2013-06-17 03:27:00,55.0,54.4,30.00,South,180,0.0,-999.0,98,-99.99,,,0.00,Acu-Link.com,2013-06-17 10:27:00,
2013-06-17 03:43:00,54.9,54.3,30.00,SE,135,0.0,-999.0,98,-99.99,,,0.00,Acu-Link.com,2013-06-17 10:43:00,
2013-06-17 03:58:00,55.0,54.4,30.00,SE,135,0.0,-999.0,98,-99.99,,,0.00,Acu-Link.com,2013-06-17 10:58:00,
2013-06-17 04:13:00,55.0,54.4,30.01,East,90,0.0,-999.0,98,-99.99,,,0.00,Acu-Link.com,2013-06-17 11:13:00,
2013-06-17 04:29:00,55.0,54.4,29.99,WSW,247,0.0,-999.0,98,-99.99,,,0.00,Acu-Link.com,2013-06-17 11:29:00,
2013-06-17 04:44:00,55.4,54.8,30.01,South,180,0.0,-999.0,98,-99.99,,,0.00,Acu-Link.com,2013-06-17 11:44:00,
2013-06-17 04:59:00,55.6,55.0,30.00,SE,135,0.0,-999.0,98,-99.99,,,0.00,Acu-Link.com,2013-06-17 11:59:00,
2013-06-17 05:15:00,55.6,55.0,30.00,SE,135,0.0,-999.0,98,-99.99,,,0.00,Acu-Link.com,2013-06-17 12:15:00,
2013-06-17 05:30:00,55.8,55.2,30.00,West,270,0.0,-999.0,98,-99.99,,,0.00,Acu-Link.com,2013-06-17 12:30:00,
2013-06-17 05:45:00,56.1,55.5,30.01,ESE,112,0.0,-999.0,98,-99.99,,,0.00,Acu-Link.com,2013-06-17 12:45:00,
2013-06-17 06:00:00,57.7,57.1,30.00,SE,135,0.0,-999.0,98,-99.99,,,0.00,Acu-Link.com,2013-06-17 13:00:00,
2013-06-17 06:15:00,58.8,58.2,30.00,WNW,292,0.0,-999.0,98,-99.99,,,0.00,Acu-Link.com,2013-06-17 13:15:00,
2013-06-17 06:31:00,58.5,57.9,30.01,SSE,157,0.0,-999.0,98,-99.99,,,0.00,Acu-Link.com,2013-06-17 13:31:00,
2013-06-17 06:46:00,57.9,57.3,30.00,WSW,247,0.0,-999.0,98,-99.99,,,0.00,Acu-Link.com,2013-06-17 13:46:00,
2013-06-17 07:01:00,58.3,57.7,30.00,WNW,292,0.0,-999.0,98,-99.99,,,0.00,Acu-Link.com,2013-06-17 14:01:00,
2013-06-17 07:17:00,60.6,60.0,30.00,ENE,67,0.0,-999.0,98,-99.99,,,0.00,Acu-Link.com,2013-06-17 14:17:00,
2013-06-17 07:32:00,62.1,61.5,30.00,East,90,0.0,-999.0,98,-99.99,,,0.00,Acu-Link.com,2013-06-17 14:32:00,
2013-06-17 07:47:00,63.9,63.3,30.02,East,90,0.0,-999.0,98,-99.99,,,0.00,Acu-Link.com,2013-06-17 14:47:00,
2013-06-17 08:03:00,62.4,61.8,30.01,East,90,2.7,-999.0,98,-99.99,,,0.00,Acu-Link.com,2013-06-17 15:03:00,
2013-06-17 08:18:00,61.5,60.9,30.00,East,90,4.2,-999.0,98,-99.99,,,0.00,Acu-Link.com,2013-06-17 15:18:00,
2013-06-17 08:33:00,60.1,59.5,30.00,ENE,67,1.1,-999.0,98,-99.99,,,0.00,Acu-Link.com,2013-06-17 15:33:00,
2013-06-17 08:48:00,59.9,59.3,30.00,East,90,2.7,-999.0,98,-99.99,,,0.00,Acu-Link.com,2013-06-17 15:48:00,
2013-06-17 09:03:00,60.4,59.8,29.99,East,90,2.7,-999.0,98,-99.99,,,0.00,Acu-Link.com,2013-06-17 16:03:00,
2013-06-17 09:18:00,60.3,59.7,30.00,NE,45,2.2,-999.0,98,-99.99,,,0.00,Acu-Link.com,2013-06-17 16:18:00,
2013-06-17 09:34:00,60.6,60.0,30.00,East,90,2.7,-999.0,98,-99.99,,,0.00,Acu-Link.com,2013-06-17 16:34:00,
2013-06-17 09:49:00,61.0,60.4,29.98,ENE,67,2.7,-999.0,98,-99.99,,,0.00,Acu-Link.com,2013-06-17 16:49:00,
2013-06-17 10:05:00,60.3,59.7,29.98,ENE,67,2.7,-999.0,98,-99.99,,,0.00,Acu-Link.com,2013-06-17 17:05:00,
2013-06-17 10:20:00,61.0,60.4,29.97,WNW,292,3.7,-999.0,98,-99.99,,,0.00,Acu-Link.com,2013-06-17 17:20:00,
2013-06-17 10:35:00,62.1,61.5,29.97,West,270,2.7,-999.0,98,-99.99,,,0.00,Acu-Link.com,2013-06-17 17:35:00,
2013-06-17 10:51:00,62.2,61.6,29.97,West,270,0.0,-999.0,98,-99.99,,,0.00,Acu-Link.com,2013-06-17 17:51:00,
2013-06-17 11:06:00,62.4,61.8,29.96,WNW,292,2.7,-999.0,98,-99.99,,,0.00,Acu-Link.com,2013-06-17 18:06:00,
2013-06-17 11:21:00,63.1,62.5,29.97,West,270,2.2,-999.0,98,-99.99,,,0.00,Acu-Link.com,2013-06-17 18:21:00,
2013-06-17 11:36:00,62.8,62.2,29.95,West,270,1.7,-999.0,98,-99.99,,,0.00,Acu-Link.com,2013-06-17 18:36:00,
2013-06-17 11:51:00,63.5,62.9,29.94,West,270,4.2,-999.0,98,-99.99,,,0.00,Acu-Link.com,2013-06-17 18:51:00,
2013-06-17 12:06:00,63.3,62.7,29.93,West,270,4.7,-999.0,98,-99.99,,,0.00,Acu-Link.com,2013-06-17 19:06:00,
2013-06-17 12:21:00,63.7,63.1,29.94,WNW,292,2.2,-999.0,98,-99.99,,,0.00,Acu-Link.com,2013-06-17 19:21:00,
2013-06-17 12:37:00,65.3,64.7,29.93,East,90,3.7,-999.0,98,-99.99,,,0.00,Acu-Link.com,2013-06-17 19:37:00,
2013-06-17 12:52:00,67.6,67.0,29.93,East,90,4.7,-999.0,98,-99.99,,,0.00,Acu-Link.com,2013-06-17 19:52:00,
2013-06-17 13:07:00,67.3,66.7,29.92,West,270,4.7,-999.0,98,-99.99,,,0.00,Acu-Link.com,2013-06-17 20:07:00,
2013-06-17 13:22:00,66.6,66.0,29.92,West,270,4.2,-999.0,98,-99.99,,,0.00,Acu-Link.com,2013-06-17 20:22:00,
2013-06-17 13:38:00,68.0,67.4,29.90,West,270,3.2,-999.0,98,-99.99,,,0.00,Acu-Link.com,2013-06-17 20:38:00,
2013-06-17 13:53:00,68.4,67.8,29.91,North,0,2.2,-999.0,98,-99.99,,,0.00,Acu-Link.com,2013-06-17 20:53:00,
2013-06-17 14:08:00,70.9,68.1,29.90,North,0,2.2,-999.0,91,-99.99,,,0.00,Acu-Link.com,2013-06-17 21:08:00,
2013-06-17 14:23:00,73.4,64.2,29.89,WNW,292,5.3,-999.0,73,-99.99,,,0.00,Acu-Link.com,2013-06-17 21:23:00,
2013-06-17 14:38:00,72.3,64.7,29.88,NNW,337,6.3,-999.0,77,-99.99,,,0.00,Acu-Link.com,2013-06-17 21:38:00,
2013-06-17 14:54:00,74.5,65.3,29.88,SSW,202,4.7,-999.0,73,-99.99,,,0.00,Acu-Link.com,2013-06-17 21:54:00,
2013-06-17 15:09:00,74.1,63.7,29.88,West,270,10.4,-999.0,70,-99.99,,,0.00,Acu-Link.com,2013-06-17 22:09:00,
2013-06-17 15:24:00,75.0,63.7,29.88,West,270,9.9,-999.0,68,-99.99,,,0.00,Acu-Link.com,2013-06-17 22:24:00,
2013-06-17 15:39:00,75.4,62.4,29.86,West,270,8.9,-999.0,64,-99.99,,,0.00,Acu-Link.com,2013-06-17 22:39:00,
2013-06-17 15:54:00,73.2,65.9,29.87,West,270,6.8,-999.0,78,-99.99,,,0.00,Acu-Link.com,2013-06-17 22:54:00,
2013-06-17 16:10:00,75.6,62.5,29.85,WNW,292,6.3,-999.0,64,-99.99,,,0.00,Acu-Link.com,2013-06-17 23:10:00,
2013-06-17 16:25:00,72.9,67.4,29.85,NNE,22,3.2,-999.0,83,-99.99,,,0.00,Acu-Link.com,2013-06-17 23:25:00,
2013-06-17 16:40:00,73.9,65.5,29.85,WNW,292,2.7,-999.0,75,-99.99,,,0.00,Acu-Link.com,2013-06-17 23:40:00,
2013-06-17 16:56:00,75.0,65.3,29.83,NNE,22,3.7,-999.0,72,-99.99,,,0.00,Acu-Link.com,2013-06-17 23:56:00,
2013-06-17 17:11:00,72.3,67.2,29.81,NW,315,3.2,-999.0,84,-99.99,,,0.00,Acu-Link.com,2013-06-18 00:11:00,
2013-06-17 17:26:00,73.6,65.6,29.82,ENE,67,0.0,-999.0,76,-99.99,,,0.00,Acu-Link.com,2013-06-18 00:26:00,
2013-06-17 17:42:00,75.2,63.0,29.82,West,270,4.7,-999.0,66,-99.99,,,0.00,Acu-Link.com,2013-06-18 00:42:00,
2013-06-17 17:57:00,75.0,63.3,29.82,ESE,112,4.2,-999.0,67,-99.99,,,0.00,Acu-Link.com,2013-06-18 00:57:00,
2013-06-17 18:12:00,71.1,67.7,29.82,West,270,5.3,-999.0,89,-99.99,,,0.00,Acu-Link.com,2013-06-18 01:12:00,
2013-06-17 18:27:00,69.3,68.7,29.82,West,270,7.3,-999.0,98,-99.99,,,0.00,Acu-Link.com,2013-06-18 01:27:00,
2013-06-17 18:43:00,68.7,68.1,29.81,West,270,5.8,-999.0,98,-99.99,,,0.00,Acu-Link.com,2013-06-18 01:43:00,
2013-06-17 18:58:00,68.7,68.1,29.82,West,270,2.2,-999.0,98,-99.99,,,0.00,Acu-Link.com,2013-06-18 01:58:00,
2013-06-17 19:13:00,71.4,68.9,29.80,ESE,112,3.7,-999.0,92,-99.99,,,0.00,Acu-Link.com,2013-06-18 02:13:00,
2013-06-17 19:28:00,69.6,68.1,29.82,West,270,4.2,-999.0,95,-99.99,,,0.00,Acu-Link.com,2013-06-18 02:28:00,
2013-06-17 19:43:00,67.6,67.0,29.81,West,270,4.2,-999.0,98,-99.99,,,0.00,Acu-Link.com,2013-06-18 02:43:00,
2013-06-17 19:58:00,66.6,66.0,29.84,West,270,3.2,-999.0,98,-99.99,,,0.00,Acu-Link.com,2013-06-18 02:58:00,
2013-06-17 20:14:00,65.5,64.9,29.83,West,270,5.8,-999.0,98,-99.99,,,0.00,Acu-Link.com,2013-06-18 03:14:00,
2013-06-17 20:29:00,64.4,63.8,29.84,West,270,5.8,-999.0,98,-99.99,,,0.00,Acu-Link.com,2013-06-18 03:29:00,
2013-06-17 20:44:00,63.9,63.3,29.86,West,270,6.3,-999.0,98,-99.99,,,0.00,Acu-Link.com,2013-06-18 03:44:00,
2013-06-17 20:59:00,63.9,63.3,29.84,West,270,3.7,-999.0,98,-99.99,,,0.00,Acu-Link.com,2013-06-18 03:59:00,
2013-06-17 21:15:00,62.6,62.0,29.85,NW,315,2.7,-999.0,98,-99.99,,,0.00,Acu-Link.com,2013-06-18 04:15:00,
2013-06-17 21:30:00,61.9,61.3,29.88,WNW,292,2.7,-999.0,98,-99.99,,,0.01,Acu-Link.com,2013-06-18 04:30:00,
2013-06-17 21:46:00,59.4,58.8,29.89,West,270,2.2,-999.0,98,-99.99,,,0.01,Acu-Link.com,2013-06-18 04:46:00,
2013-06-17 22:01:00,59.2,58.6,29.89,SSW,202,1.1,-999.0,98,-99.99,,,0.01,Acu-Link.com,2013-06-18 05:01:00,
2013-06-17 22:16:00,59.0,58.4,29.88,West,270,2.2,-999.0,98,-99.99,,,0.01,Acu-Link.com,2013-06-18 05:16:00,
2013-06-17 22:31:00,58.8,58.2,29.89,South,180,0.0,-999.0,98,-99.99,,,0.01,Acu-Link.com,2013-06-18 05:31:00,
2013-06-17 22:46:00,58.3,57.7,29.88,West,270,2.7,-999.0,98,-99.99,,,0.01,Acu-Link.com,2013-06-18 05:46:00,
2013-06-17 23:02:00,58.3,57.7,29.87,SW,225,0.0,-999.0,98,-99.99,,,0.01,Acu-Link.com,2013-06-18 06:02:00,
2013-06-17 23:17:00,57.6,57.0,29.87,South,180,0.0,-999.0,98,-99.99,,,0.01,Acu-Link.com,2013-06-18 06:17:00,
2013-06-17 23:32:00,57.2,56.6,29.87,WNW,292,0.0,-999.0,98,-99.99,,,0.01,Acu-Link.com,2013-06-18 06:32:00,
2013-06-17 23:47:00,57.2,56.6,29.88,East,90,0.0,-999.0,98,-99.99,,,0.01,Acu-Link.com,2013-06-18 06:47:00,